Time;durP1;ratioP1;P1;durP2;ratioP2;P2;SDS_P1;SDS_P2;PMS_P1;PMS_P2;Temp;Humidity;BMP_temperature;BMP_pressure;BME280_temperature;BME280_humidity;BME280_pressure;Samples;Min_cycle;Max_cycle;Signal;HPM_P1;HPM_P2
2024/02/10 00:01:49;;;;;;;298.75;280.98;;;11.90;99.90;;;;;;5032533;28;20513;-73
2024/02/10 00:04:16;;;;;;;256.45;241.98;;;11.90;99.90;;;;;;5033290;28;20021;-73
2024/02/10 00:06:42;;;;;;;301.38;284.52;;;11.80;99.90;;;;;;5031774;28;20044;-73
2024/02/10 00:09:09;;;;;;;371.20;348.52;;;11.80;99.90;;;;;;5033521;28;20025;-73
2024/02/10 00:11:36;;;;;;;384.00;360.83;;;12.00;99.90;;;;;;5032343;28;20379;-73
2024/02/10 00:14:02;;;;;;;308.00;289.63;;;11.90;99.90;;;;;;5033310;28;20025;-73
2024/02/10 00:16:29;;;;;;;329.30;309.55;;;12.10;99.90;;;;;;5032395;28;20052;-73
2024/02/10 00:18:57;;;;;;;414.08;388.40;;;12.00;99.90;;;;;;5031777;28;20036;-73
2024/02/10 00:21:29;;;;;;;339.10;319.35;;;12.10;99.90;;;;;;5031463;28;20044;-73
2024/02/10 00:23:56;;;;;;;470.02;438.85;;;12.10;99.90;;;;;;5033054;28;20513;-73
2024/02/10 00:26:23;;;;;;;329.85;309.05;;;12.00;99.90;;;;;;5031629;28;20025;-73
2024/02/10 00:28:49;;;;;;;362.67;341.25;;;11.80;99.90;;;;;;5033166;28;20036;-73
2024/02/10 00:31:15;;;;;;;311.75;292.85;;;11.90;99.90;;;;;;5031935;28;20033;-73
2024/02/10 00:33:46;;;;;;;285.08;267.60;;;11.80;99.90;;;;;;5032697;28;20026;-73
2024/02/10 00:36:12;;;;;;;295.90;277.80;;;11.60;99.90;;;;;;5032125;28;20040;-73
2024/02/10 00:38:40;;;;;;;293.23;275.95;;;11.50;99.90;;;;;;5031607;28;20463;-73
2024/02/10 00:41:09;;;;;;;852.78;579.30;;;11.40;99.90;;;;;;5031795;28;20045;-73
2024/02/10 00:43:42;;;;;;;1217.60;703.72;;;11.40;99.90;;;;;;5032912;28;20631;-73
2024/02/10 00:46:17;;;;;;;409.67;383.83;;;11.40;99.90;;;;;;5032112;28;20048;-73
2024/02/10 00:48:44;;;;;;;390.25;364.88;;;11.30;99.90;;;;;;5031326;28;20037;-73
2024/02/10 00:51:10;;;;;;;370.48;347.25;;;11.40;99.90;;;;;;5031034;28;20036;-73
2024/02/10 00:53:42;;;;;;;340.60;319.05;;;11.50;99.90;;;;;;5032616;28;20041;-73
2024/02/10 00:56:09;;;;;;;339.17;316.90;;;11.50;99.90;;;;;;5032391;28;20030;-73
2024/02/10 00:58:40;;;;;;;311.95;291.90;;;11.50;99.90;;;;;;5031240;28;20056;-73
2024/02/10 01:01:12;;;;;;;352.52;329.13;;;11.40;99.90;;;;;;5031004;28;20045;-73
2024/02/10 01:03:45;;;;;;;342.38;320.60;;;11.40;99.90;;;;;;5030961;28;20037;-73
2024/02/10 01:06:19;;;;;;;331.83;311.50;;;11.40;99.90;;;;;;5031183;28;20053;-73
2024/02/10 01:08:48;;;;;;;324.70;304.63;;;11.40;99.90;;;;;;5015724;28;20033;-73
2024/02/10 01:11:19;;;;;;;292.48;275.25;;;11.50;99.90;;;;;;5031965;28;20036;-73
2024/02/10 01:13:45;;;;;;;341.25;318.58;;;11.40;99.90;;;;;;5031173;28;20398;-73
2024/02/10 01:16:15;;;;;;;273.15;257.25;;;11.30;99.90;;;;;;5030136;28;20593;-73
2024/02/10 01:18:42;;;;;;;312.48;292.77;;;11.40;99.90;;;;;;5032251;28;20021;-73
2024/02/10 01:21:09;;;;;;;757.63;491.90;;;11.40;99.90;;;;;;5030528;28;20037;-73
2024/02/10 01:23:42;;;;;;;403.05;377.35;;;11.30;99.90;;;;;;5032311;28;20040;-73
2024/02/10 01:26:12;;;;;;;354.52;332.58;;;11.40;99.90;;;;;;5031713;28;20057;-73
2024/02/10 01:28:39;;;;;;;330.30;309.90;;;11.40;99.90;;;;;;5032595;28;20048;-73
2024/02/10 01:31:06;;;;;;;377.23;353.48;;;11.40;99.90;;;;;;5030464;28;20164;-73
2024/02/10 01:33:32;;;;;;;370.75;347.63;;;11.20;99.90;;;;;;5031181;28;20033;-73
2024/02/10 01:36:03;;;;;;;333.52;313.20;;;11.20;99.90;;;;;;5031695;28;20033;-73
2024/02/10 01:38:37;;;;;;;259.05;244.48;;;11.10;99.90;;;;;;5032062;28;20041;-73
2024/02/10 01:41:04;;;;;;;1999.90;999.90;;;11.10;99.90;;;;;;5030976;28;20041;-73
2024/02/10 01:43:30;;;;;;;1999.90;999.90;;;11.30;99.90;;;;;;5032130;28;20033;-73
2024/02/10 01:45:56;;;;;;;1999.90;999.90;;;11.30;99.90;;;;;;5030716;28;20045;-73
2024/02/10 01:48:22;;;;;;;1999.90;999.90;;;11.50;99.90;;;;;;5033869;28;20042;-73
2024/02/10 01:50:48;;;;;;;1999.90;999.90;;;11.60;99.90;;;;;;5035278;28;20037;-73
2024/02/10 01:53:14;;;;;;;1999.90;999.90;;;11.60;99.90;;;;;;5018461;28;20026;-73
2024/02/10 01:55:41;;;;;;;1999.90;999.90;;;11.60;99.90;;;;;;5033863;28;20052;-73
2024/02/10 01:58:07;;;;;;;1999.90;999.90;;;11.70;99.90;;;;;;5035622;28;20052;-73
2024/02/10 02:00:34;;;;;;;455.38;424.98;;;11.70;99.90;;;;;;5032860;28;20045;-73
2024/02/10 02:03:00;;;;;;;455.38;423.85;;;11.70;99.90;;;;;;5017979;28;20029;-73
2024/02/10 02:05:27;;;;;;;312.25;290.20;;;11.70;99.90;;;;;;5034948;28;20056;-73
2024/02/10 02:07:56;;;;;;;1559.60;805.58;;;11.70;99.90;;;;;;5035929;28;20328;-73
2024/02/10 02:10:22;;;;;;;762.13;493.15;;;11.80;99.90;;;;;;5033285;28;20462;-73
2024/02/10 02:12:50;;;;;;;750.38;481.95;;;11.80;99.90;;;;;;5035797;28;20030;-73
2024/02/10 02:15:18;;;;;;;745.25;476.50;;;11.80;99.90;;;;;;5033948;28;20053;-73
2024/02/10 02:17:44;;;;;;;1999.90;999.90;;;11.80;99.90;;;;;;5035560;28;20044;-73
2024/02/10 02:20:11;;;;;;;1999.90;999.90;;;11.80;99.90;;;;;;5033166;28;20041;-73
2024/02/10 02:22:37;;;;;;;1999.90;999.90;;;11.80;99.90;;;;;;5035513;28;20037;-73
2024/02/10 02:25:03;;;;;;;744.03;476.70;;;11.80;99.90;;;;;;5034125;28;20033;-73
2024/02/10 02:27:29;;;;;;;1999.90;999.90;;;11.80;99.90;;;;;;5035207;28;20030;-73
2024/02/10 02:29:56;;;;;;;1999.90;999.90;;;11.80;99.90;;;;;;5033349;28;20572;-73
2024/02/10 02:32:23;;;;;;;246.45;230.02;;;11.80;99.90;;;;;;5032920;28;20037;-73
2024/02/10 02:34:51;;;;;;;1999.90;999.90;;;11.80;99.90;;;;;;5035140;28;20033;-73
2024/02/10 02:37:17;;;;;;;1999.90;999.90;;;11.90;99.90;;;;;;5034575;28;20064;-73
2024/02/10 02:39:44;;;;;;;1999.90;999.90;;;11.90;99.90;;;;;;5034864;28;20033;-73
2024/02/10 02:42:10;;;;;;;1999.90;999.90;;;11.90;99.90;;;;;;5031936;28;20406;-73
2024/02/10 02:44:36;;;;;;;1999.90;999.90;;;11.90;99.90;;;;;;5033503;28;20030;-73
2024/02/10 02:47:04;;;;;;;1999.90;999.90;;;11.90;99.90;;;;;;5033165;28;20589;-73
2024/02/10 02:49:31;;;;;;;1999.90;999.90;;;11.90;99.90;;;;;;5033503;28;20048;-73
2024/02/10 02:51:57;;;;;;;1999.90;999.90;;;11.80;99.90;;;;;;5032331;28;20056;-73
2024/02/10 02:54:23;;;;;;;1999.90;999.90;;;11.80;99.90;;;;;;5033634;28;20029;-73
2024/02/10 02:56:54;;;;;;;1999.90;999.90;;;11.90;99.90;;;;;;5031766;28;20048;-73
2024/02/10 02:59:20;;;;;;;1999.90;999.90;;;11.90;99.90;;;;;;5030535;28;20033;-73
2024/02/10 03:01:51;;;;;;;1999.90;999.90;;;11.90;99.90;;;;;;5027798;28;20033;-74
2024/02/10 03:04:18;;;;;;;1999.90;999.90;;;11.90;99.90;;;;;;5028100;28;20041;-73
2024/02/10 03:06:45;;;;;;;1999.90;999.90;;;11.80;99.90;;;;;;5030534;28;20033;-73
2024/02/10 03:09:12;;;;;;;1999.90;999.90;;;11.70;99.90;;;;;;5030981;28;20371;-73
2024/02/10 03:11:38;;;;;;;1999.90;999.90;;;11.80;99.90;;;;;;5030203;28;20071;-73
2024/02/10 03:14:05;;;;;;;1999.90;999.90;;;11.80;99.90;;;;;;5031895;28;20030;-73
2024/02/10 03:16:33;;;;;;;1999.90;999.90;;;11.80;99.90;;;;;;5030930;28;20050;-73
2024/02/10 03:19:01;;;;;;;1999.90;999.90;;;11.80;99.90;;;;;;5032108;28;20454;-73
2024/02/10 03:21:27;;;;;;;1999.90;999.90;;;11.80;99.90;;;;;;5030127;28;20045;-73
2024/02/10 03:23:54;;;;;;;1999.90;999.90;;;11.80;99.90;;;;;;5032071;28;20101;-73
2024/02/10 03:26:20;;;;;;;1999.90;999.90;;;11.90;99.90;;;;;;5029581;28;20042;-73
2024/02/10 03:28:46;;;;;;;1999.90;999.90;;;11.80;99.90;;;;;;5031784;28;20037;-73
2024/02/10 03:31:12;;;;;;;1999.90;999.90;;;11.80;99.90;;;;;;5031090;28;20037;-73
2024/02/10 03:33:38;;;;;;;1999.90;999.90;;;11.80;99.90;;;;;;5031853;28;20030;-74
2024/02/10 03:36:05;;;;;;;1999.90;999.90;;;11.90;99.90;;;;;;5031538;28;20470;-73
2024/02/10 03:38:31;;;;;;;1999.90;999.90;;;11.90;99.90;;;;;;5033123;28;20045;-73
2024/02/10 03:40:57;;;;;;;1999.90;999.90;;;11.80;99.90;;;;;;4989295;28;1255960;-73
2024/02/10 03:43:26;;;;;;;1999.90;999.90;;;11.80;99.90;;;;;;5033336;28;20052;-73
2024/02/10 03:45:55;;;;;;;1999.90;999.90;;;11.90;99.90;;;;;;5031189;28;20065;-73
2024/02/10 03:48:22;;;;;;;1999.90;999.90;;;11.90;99.90;;;;;;5033929;28;20030;-73
2024/02/10 03:50:48;;;;;;;1999.90;999.90;;;12.00;99.90;;;;;;5033557;28;20041;-73
2024/02/10 03:53:14;;;;;;;1999.90;999.90;;;11.90;99.90;;;;;;5032831;28;20032;-73
2024/02/10 03:55:41;;;;;;;1999.90;999.90;;;11.90;99.90;;;;;;5032374;28;20046;-73
2024/02/10 03:58:09;;;;;;;1999.90;999.90;;;12.00;99.90;;;;;;5033330;28;20045;-73
2024/02/10 04:00:38;;;;;;;1999.90;999.90;;;12.00;99.90;;;;;;5032193;28;20040;-73
2024/02/10 04:03:05;;;;;;;1999.90;999.90;;;11.90;99.90;;;;;;5033402;28;20021;-73
2024/02/10 04:05:34;;;;;;;1999.90;999.90;;;11.90;99.90;;;;;;5031759;28;20487;-73
2024/02/10 04:08:02;;;;;;;1999.90;999.90;;;11.90;99.90;;;;;;5032519;28;20052;-73
2024/02/10 04:10:28;;;;;;;1999.90;999.90;;;11.90;99.90;;;;;;5030344;28;20041;-73
2024/02/10 04:12:55;;;;;;;1999.90;999.90;;;11.90;99.90;;;;;;5033518;28;20034;-73
2024/02/10 04:15:21;;;;;;;1999.90;999.90;;;11.90;99.90;;;;;;5031264;28;20033;-74
2024/02/10 04:17:55;;;;;;;1999.90;999.90;;;11.90;99.90;;;;;;5032755;28;20053;-73
2024/02/10 04:20:23;;;;;;;1999.90;999.90;;;11.90;99.90;;;;;;5033152;28;20033;-74
2024/02/10 04:22:52;;;;;;;1999.90;999.90;;;11.80;99.90;;;;;;5033279;28;20046;-73
2024/02/10 04:25:18;;;;;;;1999.90;999.90;;;11.80;99.90;;;;;;5032356;28;20454;-73
2024/02/10 04:27:44;;;;;;;1999.90;999.90;;;11.80;99.90;;;;;;5016534;28;20057;-73
2024/02/10 04:30:10;;;;;;;1999.90;999.90;;;11.90;99.90;;;;;;5013119;28;20034;-73
2024/02/10 04:32:46;;;;;;;1999.90;999.90;;;11.80;99.90;;;;;;5033079;28;20036;-73
2024/02/10 04:35:14;;;;;;;1999.90;999.90;;;11.80;99.90;;;;;;5031407;28;20036;-73
2024/02/10 04:37:49;;;;;;;1999.90;999.90;;;11.80;99.90;;;;;;5032222;28;20060;-73
2024/02/10 04:40:18;;;;;;;1999.90;999.90;;;11.80;99.90;;;;;;5032287;28;20056;-73
2024/02/10 04:42:45;;;;;;;1999.90;999.90;;;11.80;99.90;;;;;;5032474;28;20060;-73
2024/02/10 04:45:22;;;;;;;1999.90;999.90;;;11.90;99.90;;;;;;5031947;28;20091;-73
2024/02/10 04:47:48;;;;;;;1999.90;999.90;;;11.80;99.90;;;;;;5032401;28;20026;-73
2024/02/10 04:50:17;;;;;;;1999.90;999.90;;;11.80;99.90;;;;;;5032540;28;20033;-73
2024/02/10 04:52:44;;;;;;;1999.90;999.90;;;11.80;99.90;;;;;;5032389;28;20044;-73
2024/02/10 04:55:10;;;;;;;1999.90;999.90;;;11.80;99.90;;;;;;5030839;28;20041;-73
2024/02/10 04:57:36;;;;;;;1999.90;999.90;;;11.80;99.90;;;;;;5000481;28;20624;-73
2024/02/10 05:00:12;;;;;;;1999.90;999.90;;;11.80;99.90;;;;;;5023112;28;20021;-73
2024/02/10 05:02:39;;;;;;;1999.90;999.90;;;11.80;99.90;;;;;;5011412;28;20037;-73
2024/02/10 05:05:06;;;;;;;1999.90;999.90;;;11.80;99.90;;;;;;5011560;28;20037;-73
2024/02/10 05:07:32;;;;;;;1999.90;999.90;;;11.80;99.90;;;;;;5031692;28;20064;-73
2024/02/10 05:10:00;;;;;;;1999.90;999.90;;;11.80;99.90;;;;;;5031983;28;20040;-73
2024/02/10 05:12:27;;;;;;;1999.90;999.90;;;11.80;99.90;;;;;;5031030;28;20036;-73
2024/02/10 05:14:54;;;;;;;1999.90;999.90;;;11.80;99.90;;;;;;5031996;28;20497;-73
2024/02/10 05:17:21;;;;;;;1999.90;999.90;;;11.80;99.90;;;;;;5030989;28;20058;-73
2024/02/10 05:19:47;;;;;;;1999.90;999.90;;;11.90;99.90;;;;;;5031179;28;20466;-73
2024/02/10 05:22:17;;;;;;;1999.90;999.90;;;11.90;99.90;;;;;;5030156;28;20033;-73
2024/02/10 05:24:44;;;;;;;1999.90;999.90;;;11.90;99.90;;;;;;5028946;28;20038;-73
2024/02/10 05:27:10;;;;;;;1999.90;999.90;;;11.80;99.90;;;;;;5031258;28;20386;-73
2024/02/10 05:29:36;;;;;;;1999.90;999.90;;;11.80;99.90;;;;;;5032145;28;20041;-73
2024/02/10 05:32:05;;;;;;;1999.90;999.90;;;11.80;99.90;;;;;;5031227;28;20030;-73
2024/02/10 05:34:32;;;;;;;1999.90;999.90;;;11.70;99.90;;;;;;5032074;28;20378;-73
2024/02/10 05:37:03;;;;;;;1999.90;999.90;;;11.70;99.90;;;;;;5030109;28;20041;-73
2024/02/10 05:39:29;;;;;;;1999.90;999.90;;;11.70;99.90;;;;;;5032408;28;20033;-73
2024/02/10 05:41:59;;;;;;;1999.90;999.90;;;11.70;99.90;;;;;;5031495;28;20099;-73
2024/02/10 05:44:26;;;;;;;358.38;335.88;;;11.50;99.90;;;;;;5031947;28;20033;-73
2024/02/10 05:46:52;;;;;;;421.80;395.63;;;11.50;99.90;;;;;;5030856;28;20037;-73
2024/02/10 05:49:21;;;;;;;278.20;261.67;;;11.20;99.90;;;;;;5030382;28;20492;-73
2024/02/10 05:51:48;;;;;;;401.83;377.40;;;11.00;99.90;;;;;;5031112;28;20478;-73
2024/02/10 05:54:14;;;;;;;271.88;256.25;;;10.90;99.90;;;;;;5031900;28;20053;-73
2024/02/10 05:56:43;;;;;;;311.80;293.27;;;10.90;99.90;;;;;;5030424;28;20037;-73
2024/02/10 05:59:09;;;;;;;1999.90;999.90;;;10.80;99.90;;;;;;5028490;28;20050;-73
2024/02/10 06:01:38;;;;;;;311.75;293.08;;;10.70;99.90;;;;;;5031058;28;20038;-73
2024/02/10 06:04:09;;;;;;;249.73;235.48;;;10.70;99.90;;;;;;5030810;28;20045;-73
2024/02/10 06:06:36;;;;;;;344.95;323.77;;;10.70;99.90;;;;;;5031137;28;20033;-73
2024/02/10 06:09:02;;;;;;;301.50;282.90;;;10.80;99.90;;;;;;5030528;28;20030;-73
2024/02/10 06:11:33;;;;;;;300.40;281.80;;;10.80;99.90;;;;;;5028693;28;20059;-73
2024/02/10 06:13:59;;;;;;;1143.03;634.88;;;10.70;99.90;;;;;;5030243;28;20517;-73
2024/02/10 06:16:26;;;;;;;369.77;347.27;;;10.60;99.90;;;;;;5030721;28;20049;-73
2024/02/10 06:18:52;;;;;;;550.10;514.15;;;10.60;99.90;;;;;;5031642;28;20045;-73
2024/02/10 06:21:18;;;;;;;1999.90;999.90;;;10.70;99.90;;;;;;5029041;28;20402;-73
2024/02/10 06:23:44;;;;;;;1999.90;999.90;;;10.60;99.90;;;;;;5030471;28;20034;-73
2024/02/10 06:26:10;;;;;;;1999.90;999.90;;;10.60;99.90;;;;;;5031572;28;20061;-73
2024/02/10 06:28:37;;;;;;;1999.90;999.90;;;10.60;99.90;;;;;;5031918;28;20030;-73
2024/02/10 06:31:03;;;;;;;1999.90;999.90;;;10.50;99.90;;;;;;5030140;28;20029;-72
2024/02/10 06:33:30;;;;;;;1999.90;999.90;;;10.50;99.90;;;;;;5030609;28;20030;-73
2024/02/10 06:36:00;;;;;;;462.42;434.42;;;10.40;99.90;;;;;;5033938;28;20053;-73
2024/02/10 06:38:32;;;;;;;504.60;473.73;;;10.30;99.90;;;;;;5034051;28;20049;-73
2024/02/10 06:41:01;;;;;;;1999.90;999.90;;;10.40;99.90;;;;;;5034017;28;20041;-73
2024/02/10 06:43:28;;;;;;;1999.90;999.90;;;10.30;99.90;;;;;;5035288;28;20040;-73
2024/02/10 06:46:00;;;;;;;1999.90;999.90;;;10.30;99.90;;;;;;5034464;28;20038;-73
2024/02/10 06:48:30;;;;;;;1999.90;999.90;;;10.30;99.90;;;;;;5034018;28;20025;-73
2024/02/10 06:50:56;;;;;;;1999.90;999.90;;;10.20;99.90;;;;;;5034278;28;20390;-73
2024/02/10 06:53:23;;;;;;;1999.90;999.90;;;10.20;99.90;;;;;;5034901;28;20037;-73
2024/02/10 06:55:51;;;;;;;1999.90;999.90;;;10.30;99.90;;;;;;5034020;28;20029;-73
2024/02/10 06:58:24;;;;;;;1999.90;999.90;;;10.20;99.90;;;;;;5033213;28;20060;-73
2024/02/10 07:00:50;;;;;;;1999.90;999.90;;;10.20;99.90;;;;;;5034126;28;20026;-73
2024/02/10 07:03:17;;;;;;;1999.90;999.90;;;10.20;99.90;;;;;;5034768;28;20521;-72
2024/02/10 07:05:49;;;;;;;629.83;372.38;;;10.10;99.90;;;;;;5032930;28;20053;-72
2024/02/10 07:08:22;;;;;;;200.85;189.32;;;10.10;99.90;;;;;;5033363;28;20395;-72
2024/02/10 07:10:49;;;;;;;260.63;244.07;;;10.10;99.90;;;;;;5033922;28;20422;-74
2024/02/10 07:13:15;;;;;;;284.17;267.08;;;10.20;99.90;;;;;;5033936;28;20040;-75
2024/02/10 07:15:41;;;;;;;246.05;232.25;;;10.30;99.90;;;;;;5032027;28;20037;-73
2024/02/10 07:18:09;;;;;;;268.80;253.98;;;10.20;99.90;;;;;;5033565;28;20049;-72
2024/02/10 07:20:35;;;;;;;262.05;247.10;;;10.20;99.90;;;;;;5033677;28;20029;-75
2024/02/10 07:23:03;;;;;;;345.42;325.10;;;10.20;99.90;;;;;;5028293;28;20034;-73
2024/02/10 07:25:31;;;;;;;296.65;279.38;;;10.20;99.90;;;;;;5028530;28;20030;-73
2024/02/10 07:28:03;;;;;;;312.70;293.95;;;10.20;99.90;;;;;;5027522;28;20037;-72
2024/02/10 07:30:30;;;;;;;300.63;282.67;;;10.20;99.90;;;;;;5028789;28;20037;-72
2024/02/10 07:33:00;;;;;;;284.95;267.58;;;10.30;99.90;;;;;;5029609;28;20037;-73
2024/02/10 07:35:27;;;;;;;288.63;269.90;;;10.30;99.90;;;;;;5020368;28;20053;-73
2024/02/10 07:37:53;;;;;;;244.32;229.25;;;10.30;99.90;;;;;;5031896;28;20376;-73
2024/02/10 07:40:19;;;;;;;326.38;305.42;;;10.40;99.90;;;;;;5033816;28;20041;-73
2024/02/10 07:42:46;;;;;;;307.42;287.65;;;10.50;99.90;;;;;;5034076;28;20021;-72
2024/02/10 07:45:12;;;;;;;240.15;226.15;;;10.50;99.90;;;;;;5029084;28;20053;-73
2024/02/10 07:47:38;;;;;;;232.38;218.02;;;10.50;99.90;;;;;;5032348;28;20470;-73
2024/02/10 07:50:06;;;;;;;208.48;195.82;;;10.50;99.90;;;;;;5026379;28;20041;-73
2024/02/10 07:52:32;;;;;;;176.95;165.80;;;10.60;99.90;;;;;;5026786;28;20053;-73
2024/02/10 07:54:58;;;;;;;221.55;207.40;;;10.60;99.90;;;;;;5014161;28;20038;-74
2024/02/10 07:57:24;;;;;;;240.18;224.52;;;10.60;99.90;;;;;;5029856;28;20033;-73
2024/02/10 07:59:52;;;;;;;237.43;223.07;;;10.60;99.90;;;;;;5032690;28;20025;-74
2024/02/10 08:02:23;;;;;;;178.38;167.88;;;10.60;99.90;;;;;;5032890;28;20044;-74
2024/02/10 08:04:51;;;;;;;181.95;170.75;;;10.60;99.90;;;;;;5033319;28;20038;-73
2024/02/10 08:07:35;;;;;;;191.95;180.80;;;10.60;99.90;;;;;;5031298;28;20038;-74
2024/02/10 08:10:07;;;;;;;163.20;153.75;;;10.60;99.90;;;;;;5025652;28;20034;-74
2024/02/10 08:12:33;;;;;;;216.13;203.35;;;10.60;99.90;;;;;;5030803;28;20032;-74
2024/02/10 08:14:59;;;;;;;228.38;215.05;;;10.60;99.90;;;;;;5033036;28;20032;-74
2024/02/10 08:17:26;;;;;;;160.63;150.70;;;10.70;99.90;;;;;;5032195;28;20659;-74
2024/02/10 08:19:56;;;;;;;163.45;153.57;;;10.60;99.90;;;;;;5032144;28;20025;-74
2024/02/10 08:22:25;;;;;;;146.77;135.47;;;10.60;99.90;;;;;;5019959;28;20042;-74
2024/02/10 08:24:55;;;;;;;170.77;160.48;;;10.60;99.90;;;;;;5043988;28;20045;-73
2024/02/10 08:27:31;;;;;;;169.93;160.13;;;10.60;99.90;;;;;;5022148;28;20046;-74
2024/02/10 08:29:58;;;;;;;174.50;164.23;;;10.70;99.90;;;;;;5027045;28;20045;-74
2024/02/10 08:32:25;;;;;;;197.15;185.70;;;10.70;99.90;;;;;;5031572;28;20045;-74
2024/02/10 08:34:51;;;;;;;212.10;199.70;;;10.70;99.90;;;;;;5031365;28;20034;-74
2024/02/10 08:37:17;;;;;;;191.20;180.43;;;10.70;99.90;;;;;;5021364;28;20033;-74
2024/02/10 08:39:44;;;;;;;165.77;156.25;;;10.70;99.90;;;;;;5025004;28;20040;-74
2024/02/10 08:42:14;;;;;;;148.48;139.20;;;10.70;99.90;;;;;;5032499;28;20403;-74
2024/02/10 08:44:40;;;;;;;135.55;127.70;;;10.70;99.90;;;;;;5024805;28;20033;-74
2024/02/10 08:47:06;;;;;;;129.15;121.47;;;10.70;99.90;;;;;;5031506;28;20040;-74
2024/02/10 08:49:38;;;;;;;91.90;86.38;;;10.70;99.90;;;;;;5030752;28;20042;-74
2024/02/10 08:52:14;;;;;;;146.55;138.00;;;10.80;99.90;;;;;;5032626;28;20052;-74
2024/02/10 08:54:40;;;;;;;166.57;157.60;;;10.80;99.90;;;;;;5031881;28;20048;-74
2024/02/10 08:57:09;;;;;;;193.15;181.85;;;10.80;99.90;;;;;;5031933;28;20037;-74
2024/02/10 08:59:40;;;;;;;131.20;123.75;;;10.80;99.90;;;;;;5021150;28;20049;-74
2024/02/10 09:02:06;;;;;;;103.32;97.05;;;10.80;99.90;;;;;;5059579;28;20045;-74
2024/02/10 09:04:34;;;;;;;99.05;92.60;;;10.80;99.90;;;;;;5029122;28;20034;-74
2024/02/10 09:07:00;;;;;;;93.30;87.25;;;10.90;99.90;;;;;;5058863;28;20025;-74
2024/02/10 09:09:27;;;;;;;97.45;91.28;;;10.90;99.90;;;;;;5030357;28;20568;-74
2024/02/10 09:11:53;;;;;;;118.88;111.55;;;10.90;99.90;;;;;;5031344;28;20327;-74
2024/02/10 09:14:19;;;;;;;121.00;113.68;;;10.90;99.90;;;;;;5030060;28;20026;-74
2024/02/10 09:16:46;;;;;;;121.80;114.05;;;10.90;99.90;;;;;;5030974;28;20048;-74
2024/02/10 09:19:18;;;;;;;124.78;117.07;;;10.90;99.90;;;;;;5032059;28;20041;-74
2024/02/10 09:21:46;;;;;;;147.13;136.95;;;10.90;99.90;;;;;;5029898;28;20060;-74
2024/02/10 09:24:13;;;;;;;156.50;147.02;;;10.90;99.90;;;;;;5030715;28;20453;-74
2024/02/10 09:26:40;;;;;;;156.30;145.43;;;10.90;99.90;;;;;;5030639;28;20049;-74
2024/02/10 09:29:06;;;;;;;174.30;162.77;;;11.00;99.90;;;;;;5031480;28;20406;-74
2024/02/10 09:31:32;;;;;;;151.02;140.57;;;11.00;99.90;;;;;;5028702;28;20034;-74
2024/02/10 09:34:00;;;;;;;194.55;182.55;;;11.00;99.90;;;;;;5030378;28;20041;-74
2024/02/10 09:36:26;;;;;;;233.80;219.27;;;11.00;99.90;;;;;;5030519;28;20398;-75
2024/02/10 09:38:53;;;;;;;234.50;220.35;;;11.00;99.90;;;;;;5030226;28;20033;-75
2024/02/10 09:41:19;;;;;;;181.20;170.45;;;10.90;99.90;;;;;;5031168;28;20379;-75
2024/02/10 09:43:48;;;;;;;192.95;181.63;;;10.90;99.90;;;;;;5031434;28;20029;-75
2024/02/10 09:46:14;;;;;;;200.82;188.98;;;11.00;99.90;;;;;;5031103;28;20037;-74
2024/02/10 09:48:51;;;;;;;199.52;187.10;;;11.00;99.90;;;;;;5028433;28;20036;-75
2024/02/10 09:51:18;;;;;;;150.25;141.35;;;11.00;99.90;;;;;;5020870;28;20502;-75
2024/02/10 09:53:44;;;;;;;179.68;169.20;;;11.00;99.90;;;;;;5030626;28;20053;-75
2024/02/10 09:56:12;;;;;;;221.50;208.07;;;11.00;99.90;;;;;;5028540;28;20042;-75
2024/02/10 09:58:46;;;;;;;200.10;188.70;;;11.00;99.90;;;;;;5029103;28;20054;-75
2024/02/10 10:01:15;;;;;;;230.95;217.80;;;11.10;99.90;;;;;;5029501;28;20046;-75
2024/02/10 10:03:42;;;;;;;163.13;153.38;;;11.10;99.90;;;;;;5026422;28;20048;-75
2024/02/10 10:06:12;;;;;;;228.65;214.55;;;11.10;99.90;;;;;;5028607;28;20061;-74
2024/02/10 10:08:39;;;;;;;199.87;186.23;;;11.10;99.90;;;;;;5027560;28;20061;-75
2024/02/10 10:11:06;;;;;;;193.77;180.32;;;11.20;99.90;;;;;;5025130;28;20276;-75
2024/02/10 10:13:33;;;;;;;215.07;200.88;;;11.20;99.90;;;;;;5061515;28;20029;-75
2024/02/10 10:16:02;;;;;;;197.32;185.07;;;11.20;99.90;;;;;;5032769;28;20041;-75
2024/02/10 10:18:28;;;;;;;237.45;222.60;;;11.20;99.90;;;;;;5034872;28;20057;-75
2024/02/10 10:20:54;;;;;;;163.52;153.15;;;11.20;99.90;;;;;;5029607;28;20502;-75
2024/02/10 10:23:20;;;;;;;156.02;146.25;;;11.20;99.90;;;;;;5027423;28;20037;-75
2024/02/10 10:25:46;;;;;;;147.32;138.05;;;11.20;99.90;;;;;;5033164;28;20077;-75
2024/02/10 10:28:16;;;;;;;164.30;153.00;;;11.20;99.90;;;;;;5034975;28;20033;-75
2024/02/10 10:30:48;;;;;;;144.40;134.98;;;11.20;99.90;;;;;;5034352;28;20049;-75
2024/02/10 10:33:20;;;;;;;162.93;153.50;;;11.30;99.90;;;;;;5034226;28;20048;-75
2024/02/10 10:35:46;;;;;;;176.07;164.90;;;11.20;99.90;;;;;;5028355;28;20386;-75
2024/02/10 10:38:12;;;;;;;163.82;153.90;;;11.20;99.90;;;;;;5020230;28;20030;-75
2024/02/10 10:40:38;;;;;;;200.68;189.45;;;11.30;99.90;;;;;;5033391;28;20065;-75
2024/02/10 10:43:11;;;;;;;191.55;180.23;;;11.30;99.90;;;;;;5024168;28;20483;-75
2024/02/10 10:45:38;;;;;;;219.60;205.48;;;11.30;99.90;;;;;;5028399;28;20034;-75
2024/02/10 10:48:05;;;;;;;225.93;212.73;;;11.40;99.90;;;;;;5026441;28;20034;-75
2024/02/10 10:50:31;;;;;;;208.43;195.60;;;11.40;99.90;;;;;;5064077;28;20048;-75
2024/02/10 10:53:10;;;;;;;177.85;167.13;;;11.40;99.90;;;;;;5033444;28;20386;-75
2024/02/10 10:55:48;;;;;;;194.43;182.50;;;11.40;99.90;;;;;;5034451;28;20037;-75
2024/02/10 10:58:18;;;;;;;199.55;187.18;;;11.40;99.90;;;;;;5017602;28;20068;-75
2024/02/10 11:00:45;;;;;;;176.68;166.48;;;11.40;99.90;;;;;;5020584;28;20037;-75
2024/02/10 11:03:15;;;;;;;223.32;210.75;;;11.50;99.90;;;;;;5032794;28;20030;-75
2024/02/10 11:05:41;;;;;;;256.73;241.25;;;11.40;99.90;;;;;;5033913;28;20048;-75
2024/02/10 11:08:13;;;;;;;311.08;291.95;;;11.40;99.90;;;;;;5034400;28;20048;-75
2024/02/10 11:10:40;;;;;;;261.58;245.80;;;11.40;99.90;;;;;;5033951;28;20100;-75
2024/02/10 11:13:07;;;;;;;305.08;286.05;;;11.50;99.90;;;;;;5031595;28;20049;-75
2024/02/10 11:15:40;;;;;;;261.05;245.20;;;11.60;99.90;;;;;;5033838;28;20533;-75
2024/02/10 11:18:13;;;;;;;324.60;305.33;;;11.60;99.90;;;;;;5034005;28;20045;-75
2024/02/10 11:20:41;;;;;;;178.43;167.05;;;11.70;99.90;;;;;;5031033;28;20502;-75
2024/02/10 11:23:13;;;;;;;233.82;219.32;;;11.70;99.90;;;;;;5033564;28;20037;-75
2024/02/10 11:25:40;;;;;;;202.07;189.68;;;11.70;99.90;;;;;;5032062;28;20056;-75
2024/02/10 11:28:07;;;;;;;193.85;182.30;;;11.60;99.90;;;;;;5031516;28;20045;-75
2024/02/10 11:30:34;;;;;;;190.98;179.88;;;11.70;99.90;;;;;;5031804;28;20039;-75
2024/02/10 11:33:03;;;;;;;187.85;176.82;;;11.70;99.90;;;;;;5031658;28;20046;-75
2024/02/10 11:35:32;;;;;;;1100.63;594.45;;;11.70;99.90;;;;;;5023651;28;20042;-76
2024/02/10 11:38:01;;;;;;;1999.90;999.90;;;11.80;99.90;;;;;;5028335;28;20038;-75
2024/02/10 11:40:27;;;;;;;1999.90;999.90;;;11.80;99.90;;;;;;5031185;28;20049;-75
2024/02/10 11:42:53;;;;;;;1999.90;999.90;;;11.80;99.90;;;;;;5031587;28;20045;-75
2024/02/10 11:45:20;;;;;;;1999.90;999.90;;;11.90;99.90;;;;;;5047089;28;20033;-76
2024/02/10 11:47:53;;;;;;;1999.90;999.90;;;11.90;99.90;;;;;;5032435;28;20075;-74
2024/02/10 11:50:19;;;;;;;1999.90;999.90;;;11.90;99.90;;;;;;5031799;28;20037;-74
2024/02/10 11:52:45;;;;;;;1999.90;999.90;;;11.90;99.90;;;;;;5060130;28;20026;-74
2024/02/10 11:55:11;;;;;;;1999.90;999.90;;;11.90;99.90;;;;;;5045998;28;20034;-74
2024/02/10 11:57:37;;;;;;;1999.90;999.90;;;11.90;99.90;;;;;;5022342;28;20037;-74
2024/02/10 12:00:06;;;;;;;1999.90;999.90;;;12.00;99.90;;;;;;5031043;28;20037;-74
2024/02/10 12:02:32;;;;;;;1999.90;999.90;;;12.00;99.90;;;;;;5029534;28;20025;-74
2024/02/10 12:04:59;;;;;;;1999.90;999.90;;;12.10;99.90;;;;;;5030084;28;20383;-74
2024/02/10 12:07:28;;;;;;;1999.90;999.90;;;12.10;99.90;;;;;;5029192;28;20390;-74